sensor_id;sensor_type;location;lat;lon;timestamp;temperature;humidity
73568;SHT30;61847;54.994;73.310;2022-12-07T00:00:22;-14.93;75.06
73568;SHT30;61847;54.994;73.310;2022-12-07T00:02:49;-15.03;74.93
73568;SHT30;61847;54.994;73.310;2022-12-07T00:05:15;-15.10;75.22
73568;SHT30;61847;54.994;73.310;2022-12-07T00:07:47;-15.13;76.19
73568;SHT30;61847;54.994;73.310;2022-12-07T00:10:13;-15.11;75.80
73568;SHT30;61847;54.994;73.310;2022-12-07T00:12:49;-15.10;74.60
73568;SHT30;61847;54.994;73.310;2022-12-07T00:15:16;-15.08;74.07
73568;SHT30;61847;54.994;73.310;2022-12-07T00:17:48;-15.14;74.00
73568;SHT30;61847;54.994;73.310;2022-12-07T00:20:15;-15.20;73.84
73568;SHT30;61847;54.994;73.310;2022-12-07T00:22:50;-15.17;73.69
73568;SHT30;61847;54.994;73.310;2022-12-07T00:25:17;-15.21;73.27
73568;SHT30;61847;54.994;73.310;2022-12-07T00:27:43;-15.25;73.17
73568;SHT30;61847;54.994;73.310;2022-12-07T00:30:20;-15.17;73.67
73568;SHT30;61847;54.994;73.310;2022-12-07T00:32:51;-15.10;73.55
73568;SHT30;61847;54.994;73.310;2022-12-07T00:35:28;-15.06;73.28
73568;SHT30;61847;54.994;73.310;2022-12-07T00:37:54;-15.07;73.42
73568;SHT30;61847;54.994;73.310;2022-12-07T00:40:25;-15.14;73.49
73568;SHT30;61847;54.994;73.310;2022-12-07T00:42:56;-15.04;73.56
73568;SHT30;61847;54.994;73.310;2022-12-07T00:45:33;-15.10;73.43
73568;SHT30;61847;54.994;73.310;2022-12-07T00:48:09;-15.13;73.54
73568;SHT30;61847;54.994;73.310;2022-12-07T00:50:45;-15.18;73.79
73568;SHT30;61847;54.994;73.310;2022-12-07T00:53:17;-15.14;73.48
73568;SHT30;61847;54.994;73.310;2022-12-07T00:55:48;-15.23;73.24
73568;SHT30;61847;54.994;73.310;2022-12-07T00:58:16;-15.31;73.85
73568;SHT30;61847;54.994;73.310;2022-12-07T01:00:53;-15.31;73.84
73568;SHT30;61847;54.994;73.310;2022-12-07T01:03:19;-15.31;73.60
73568;SHT30;61847;54.994;73.310;2022-12-07T01:05:53;-15.36;73.51
73568;SHT30;61847;54.994;73.310;2022-12-07T01:08:19;-15.31;73.83
73568;SHT30;61847;54.994;73.310;2022-12-07T01:10:46;-15.25;73.62
73568;SHT30;61847;54.994;73.310;2022-12-07T01:13:13;-15.21;73.72
73568;SHT30;61847;54.994;73.310;2022-12-07T01:15:41;-15.18;73.47
73568;SHT30;61847;54.994;73.310;2022-12-07T01:18:09;-15.14;73.36
73568;SHT30;61847;54.994;73.310;2022-12-07T01:20:36;-15.14;73.12
73568;SHT30;61847;54.994;73.310;2022-12-07T01:23:02;-15.10;73.22
73568;SHT30;61847;54.994;73.310;2022-12-07T01:25:29;-15.17;73.42
73568;SHT30;61847;54.994;73.310;2022-12-07T01:28:00;-15.17;73.62
73568;SHT30;61847;54.994;73.310;2022-12-07T01:30:32;-15.21;73.29
73568;SHT30;61847;54.994;73.310;2022-12-07T01:33:00;-15.27;73.89
73568;SHT30;61847;54.994;73.310;2022-12-07T01:35:27;-15.30;73.95
73568;SHT30;61847;54.994;73.310;2022-12-07T01:37:53;-15.34;74.09
73568;SHT30;61847;54.994;73.310;2022-12-07T01:40:20;-15.39;74.08
73568;SHT30;61847;54.994;73.310;2022-12-07T01:42:54;-15.42;74.68
73568;SHT30;61847;54.994;73.310;2022-12-07T01:45:36;-15.39;74.82
73568;SHT30;61847;54.994;73.310;2022-12-07T01:48:04;-15.42;75.21
73568;SHT30;61847;54.994;73.310;2022-12-07T01:50:43;-15.36;75.31
73568;SHT30;61847;54.994;73.310;2022-12-07T01:53:10;-15.32;75.05
73568;SHT30;61847;54.994;73.310;2022-12-07T01:55:41;-15.25;74.69
73568;SHT30;61847;54.994;73.310;2022-12-07T01:58:08;-15.28;74.72
73568;SHT30;61847;54.994;73.310;2022-12-07T02:00:35;-15.21;74.68
73568;SHT30;61847;54.994;73.310;2022-12-07T02:05:43;-15.21;74.72
73568;SHT30;61847;54.994;73.310;2022-12-07T02:08:10;-15.23;74.70
73568;SHT30;61847;54.994;73.310;2022-12-07T02:10:37;-15.24;74.68
73568;SHT30;61847;54.994;73.310;2022-12-07T02:13:13;-15.24;74.58
73568;SHT30;61847;54.994;73.310;2022-12-07T02:24:06;-15.15;74.76
73568;SHT30;61847;54.994;73.310;2022-12-07T02:29:23;-15.21;74.35
73568;SHT30;61847;54.994;73.310;2022-12-07T02:32:09;-15.24;74.50
73568;SHT30;61847;54.994;73.310;2022-12-07T02:35:07;-15.27;74.67
73568;SHT30;61847;54.994;73.310;2022-12-07T02:37:57;-15.20;74.56
73568;SHT30;61847;54.994;73.310;2022-12-07T02:40:38;-15.25;74.30
73568;SHT30;61847;54.994;73.310;2022-12-07T02:45:52;-15.24;74.71
73568;SHT30;61847;54.994;73.310;2022-12-07T02:48:20;-15.23;74.40
73568;SHT30;61847;54.994;73.310;2022-12-07T02:50:53;-15.24;74.69
73568;SHT30;61847;54.994;73.310;2022-12-07T02:53:35;-15.20;74.11
73568;SHT30;61847;54.994;73.310;2022-12-07T03:02:03;-15.27;74.50
73568;SHT30;61847;54.994;73.310;2022-12-07T03:04:44;-15.30;74.36
73568;SHT30;61847;54.994;73.310;2022-12-07T03:12:32;-15.21;74.70
73568;SHT30;61847;54.994;73.310;2022-12-07T03:15:11;-15.28;74.54
73568;SHT30;61847;54.994;73.310;2022-12-07T03:17:39;-15.25;74.62
73568;SHT30;61847;54.994;73.310;2022-12-07T03:20:09;-15.18;74.51
73568;SHT30;61847;54.994;73.310;2022-12-07T03:22:38;-15.11;74.24
73568;SHT30;61847;54.994;73.310;2022-12-07T03:25:10;-15.08;73.82
73568;SHT30;61847;54.994;73.310;2022-12-07T03:27:53;-15.10;73.13
73568;SHT30;61847;54.994;73.310;2022-12-07T03:30:39;-15.17;72.97
73568;SHT30;61847;54.994;73.310;2022-12-07T03:33:13;-15.08;73.03
73568;SHT30;61847;54.994;73.310;2022-12-07T03:35:48;-15.13;72.48
73568;SHT30;61847;54.994;73.310;2022-12-07T03:38:25;-15.14;71.72
73568;SHT30;61847;54.994;73.310;2022-12-07T03:41:18;-15.11;71.73
73568;SHT30;61847;54.994;73.310;2022-12-07T03:43:45;-15.11;72.14
73568;SHT30;61847;54.994;73.310;2022-12-07T03:46:33;-15.06;72.71
73568;SHT30;61847;54.994;73.310;2022-12-07T03:52:51;-15.20;72.93
73568;SHT30;61847;54.994;73.310;2022-12-07T03:55:16;-15.18;72.79
73568;SHT30;61847;54.994;73.310;2022-12-07T03:57:47;-15.17;72.44
73568;SHT30;61847;54.994;73.310;2022-12-07T04:00:14;-15.20;72.42
73568;SHT30;61847;54.994;73.310;2022-12-07T04:02:54;-15.23;72.77
73568;SHT30;61847;54.994;73.310;2022-12-07T04:05:24;-15.25;72.95
73568;SHT30;61847;54.994;73.310;2022-12-07T04:07:51;-15.25;72.70
73568;SHT30;61847;54.994;73.310;2022-12-07T04:10:28;-15.20;72.57
73568;SHT30;61847;54.994;73.310;2022-12-07T04:12:54;-15.21;72.48
73568;SHT30;61847;54.994;73.310;2022-12-07T04:15:21;-15.21;72.15
73568;SHT30;61847;54.994;73.310;2022-12-07T04:17:47;-15.21;72.19
73568;SHT30;61847;54.994;73.310;2022-12-07T04:20:14;-15.24;72.07
73568;SHT30;61847;54.994;73.310;2022-12-07T04:22:45;-15.23;72.18
73568;SHT30;61847;54.994;73.310;2022-12-07T04:25:11;-15.20;72.30
73568;SHT30;61847;54.994;73.310;2022-12-07T04:27:38;-15.20;71.95
73568;SHT30;61847;54.994;73.310;2022-12-07T04:30:05;-15.25;71.98
73568;SHT30;61847;54.994;73.310;2022-12-07T04:32:36;-15.23;72.15
73568;SHT30;61847;54.994;73.310;2022-12-07T04:35:03;-15.28;72.33
73568;SHT30;61847;54.994;73.310;2022-12-07T04:37:29;-15.28;72.11
73568;SHT30;61847;54.994;73.310;2022-12-07T04:40:09;-15.35;72.53
73568;SHT30;61847;54.994;73.310;2022-12-07T04:42:37;-15.39;72.71
73568;SHT30;61847;54.994;73.310;2022-12-07T04:45:04;-15.52;73.15
73568;SHT30;61847;54.994;73.310;2022-12-07T04:47:30;-15.48;73.83
73568;SHT30;61847;54.994;73.310;2022-12-07T04:50:09;-15.46;74.10
73568;SHT30;61847;54.994;73.310;2022-12-07T04:52:35;-15.41;74.04
73568;SHT30;61847;54.994;73.310;2022-12-07T04:55:12;-15.42;74.47
73568;SHT30;61847;54.994;73.310;2022-12-07T04:57:38;-15.36;74.48
73568;SHT30;61847;54.994;73.310;2022-12-07T05:00:05;-15.30;74.61
73568;SHT30;61847;54.994;73.310;2022-12-07T05:02:31;-15.25;74.51
73568;SHT30;61847;54.994;73.310;2022-12-07T05:04:58;-15.27;74.67
73568;SHT30;61847;54.994;73.310;2022-12-07T05:07:24;-15.30;75.00
73568;SHT30;61847;54.994;73.310;2022-12-07T05:09:50;-15.31;75.04
73568;SHT30;61847;54.994;73.310;2022-12-07T05:12:16;-15.20;74.57
73568;SHT30;61847;54.994;73.310;2022-12-07T05:14:43;-15.14;74.72
73568;SHT30;61847;54.994;73.310;2022-12-07T05:17:09;-15.07;74.17
73568;SHT30;61847;54.994;73.310;2022-12-07T05:19:37;-15.03;73.82
73568;SHT30;61847;54.994;73.310;2022-12-07T05:22:03;-15.04;73.96
73568;SHT30;61847;54.994;73.310;2022-12-07T05:24:30;-15.01;74.32
73568;SHT30;61847;54.994;73.310;2022-12-07T05:26:57;-14.99;74.58
73568;SHT30;61847;54.994;73.310;2022-12-07T05:29:23;-15.04;74.39
73568;SHT30;61847;54.994;73.310;2022-12-07T05:31:49;-15.04;74.60
73568;SHT30;61847;54.994;73.310;2022-12-07T05:34:16;-15.04;74.53
73568;SHT30;61847;54.994;73.310;2022-12-07T05:36:42;-15.07;74.69
73568;SHT30;61847;54.994;73.310;2022-12-07T05:39:08;-15.06;74.81
73568;SHT30;61847;54.994;73.310;2022-12-07T05:41:35;-15.10;74.94
73568;SHT30;61847;54.994;73.310;2022-12-07T05:44:20;-15.08;74.98
73568;SHT30;61847;54.994;73.310;2022-12-07T05:46:46;-15.11;74.98
73568;SHT30;61847;54.994;73.310;2022-12-07T05:49:12;-15.10;75.03
73568;SHT30;61847;54.994;73.310;2022-12-07T05:51:39;-15.10;75.04
73568;SHT30;61847;54.994;73.310;2022-12-07T05:54:05;-15.18;75.22
73568;SHT30;61847;54.994;73.310;2022-12-07T05:56:31;-15.13;75.19
73568;SHT30;61847;54.994;73.310;2022-12-07T05:58:58;-15.13;75.07
73568;SHT30;61847;54.994;73.310;2022-12-07T06:01:44;-15.14;75.17
73568;SHT30;61847;54.994;73.310;2022-12-07T06:04:10;-15.13;75.17
73568;SHT30;61847;54.994;73.310;2022-12-07T06:06:37;-15.14;75.26
73568;SHT30;61847;54.994;73.310;2022-12-07T06:09:04;-15.13;75.05
73568;SHT30;61847;54.994;73.310;2022-12-07T06:11:31;-15.06;74.94
73568;SHT30;61847;54.994;73.310;2022-12-07T06:14:16;-15.04;74.65
73568;SHT30;61847;54.994;73.310;2022-12-07T06:16:42;-15.01;74.14
73568;SHT30;61847;54.994;73.310;2022-12-07T06:19:10;-15.04;73.86
73568;SHT30;61847;54.994;73.310;2022-12-07T06:21:37;-15.03;74.02
73568;SHT30;61847;54.994;73.310;2022-12-07T06:24:03;-14.96;73.75
73568;SHT30;61847;54.994;73.310;2022-12-07T06:26:40;-15.00;73.43
73568;SHT30;61847;54.994;73.310;2022-12-07T06:29:08;-15.04;73.73
73568;SHT30;61847;54.994;73.310;2022-12-07T06:31:35;-15.03;73.92
73568;SHT30;61847;54.994;73.310;2022-12-07T06:34:04;-14.94;73.37
73568;SHT30;61847;54.994;73.310;2022-12-07T06:36:31;-14.96;72.86
73568;SHT30;61847;54.994;73.310;2022-12-07T06:39:01;-14.87;73.07
73568;SHT30;61847;54.994;73.310;2022-12-07T06:41:28;-14.84;72.47
73568;SHT30;61847;54.994;73.310;2022-12-07T06:43:54;-14.76;72.28
73568;SHT30;61847;54.994;73.310;2022-12-07T06:46:22;-14.72;72.13
73568;SHT30;61847;54.994;73.310;2022-12-07T06:48:53;-14.59;71.98
73568;SHT30;61847;54.994;73.310;2022-12-07T06:51:19;-14.54;71.56
73568;SHT30;61847;54.994;73.310;2022-12-07T06:53:46;-14.46;71.56
73568;SHT30;61847;54.994;73.310;2022-12-07T06:56:13;-14.35;71.42
73568;SHT30;61847;54.994;73.310;2022-12-07T06:58:40;-14.33;71.22
73568;SHT30;61847;54.994;73.310;2022-12-07T07:01:14;-14.35;70.97
73568;SHT30;61847;54.994;73.310;2022-12-07T07:03:41;-14.40;71.21
73568;SHT30;61847;54.994;73.310;2022-12-07T07:06:08;-14.35;71.15
73568;SHT30;61847;54.994;73.310;2022-12-07T07:08:35;-14.30;71.31
73568;SHT30;61847;54.994;73.310;2022-12-07T07:11:02;-14.31;71.35
73568;SHT30;61847;54.994;73.310;2022-12-07T07:13:29;-14.20;71.39
73568;SHT30;61847;54.994;73.310;2022-12-07T07:15:56;-14.24;71.48
73568;SHT30;61847;54.994;73.310;2022-12-07T07:18:23;-14.14;71.40
73568;SHT30;61847;54.994;73.310;2022-12-07T07:20:50;-14.04;70.87
73568;SHT30;61847;54.994;73.310;2022-12-07T07:23:26;-14.04;70.37
73568;SHT30;61847;54.994;73.310;2022-12-07T07:25:53;-14.24;69.97
73568;SHT30;61847;54.994;73.310;2022-12-07T07:28:19;-14.24;70.40
73568;SHT30;61847;54.994;73.310;2022-12-07T07:30:46;-14.18;70.31
73568;SHT30;61847;54.994;73.310;2022-12-07T07:33:12;-14.21;70.54
73568;SHT30;61847;54.994;73.310;2022-12-07T07:35:38;-14.13;70.91
73568;SHT30;61847;54.994;73.310;2022-12-07T07:38:06;-14.24;70.77
73568;SHT30;61847;54.994;73.310;2022-12-07T07:40:42;-14.24;71.46
73568;SHT30;61847;54.994;73.310;2022-12-07T07:43:09;-14.16;71.30
73568;SHT30;61847;54.994;73.310;2022-12-07T07:45:35;-14.06;70.86
73568;SHT30;61847;54.994;73.310;2022-12-07T07:48:01;-14.04;71.26
73568;SHT30;61847;54.994;73.310;2022-12-07T07:50:27;-14.02;71.01
73568;SHT30;61847;54.994;73.310;2022-12-07T07:52:54;-13.96;70.88
73568;SHT30;61847;54.994;73.310;2022-12-07T07:55:20;-13.90;70.55
73568;SHT30;61847;54.994;73.310;2022-12-07T07:57:47;-13.89;70.30
73568;SHT30;61847;54.994;73.310;2022-12-07T08:00:14;-13.90;70.20
73568;SHT30;61847;54.994;73.310;2022-12-07T08:02:41;-13.87;70.33
73568;SHT30;61847;54.994;73.310;2022-12-07T08:05:11;-13.86;70.49
73568;SHT30;61847;54.994;73.310;2022-12-07T08:07:38;-13.85;70.43
73568;SHT30;61847;54.994;73.310;2022-12-07T08:10:09;-13.87;70.37
73568;SHT30;61847;54.994;73.310;2022-12-07T08:12:40;-13.86;70.36
73568;SHT30;61847;54.994;73.310;2022-12-07T08:15:30;-13.79;70.61
73568;SHT30;61847;54.994;73.310;2022-12-07T08:17:57;-13.73;70.43
73568;SHT30;61847;54.994;73.310;2022-12-07T08:20:25;-13.73;70.33
73568;SHT30;61847;54.994;73.310;2022-12-07T08:22:51;-13.76;70.36
73568;SHT30;61847;54.994;73.310;2022-12-07T08:25:18;-13.79;70.08
73568;SHT30;61847;54.994;73.310;2022-12-07T08:27:44;-13.75;70.21
73568;SHT30;61847;54.994;73.310;2022-12-07T08:30:11;-13.75;70.89
73568;SHT30;61847;54.994;73.310;2022-12-07T08:32:38;-13.72;70.85
73568;SHT30;61847;54.994;73.310;2022-12-07T08:35:05;-13.73;70.82
73568;SHT30;61847;54.994;73.310;2022-12-07T08:37:32;-13.77;70.34
73568;SHT30;61847;54.994;73.310;2022-12-07T08:39:58;-13.72;70.85
73568;SHT30;61847;54.994;73.310;2022-12-07T08:42:29;-13.62;70.90
73568;SHT30;61847;54.994;73.310;2022-12-07T08:45:10;-13.66;71.05
73568;SHT30;61847;54.994;73.310;2022-12-07T08:47:59;-13.70;70.51
73568;SHT30;61847;54.994;73.310;2022-12-07T08:50:28;-13.63;70.37
73568;SHT30;61847;54.994;73.310;2022-12-07T08:53:00;-13.62;70.65
73568;SHT30;61847;54.994;73.310;2022-12-07T08:55:27;-13.62;70.45
73568;SHT30;61847;54.994;73.310;2022-12-07T08:58:04;-13.55;71.02
73568;SHT30;61847;54.994;73.310;2022-12-07T09:00:38;-13.58;70.93
73568;SHT30;61847;54.994;73.310;2022-12-07T09:03:04;-13.54;71.30
73568;SHT30;61847;54.994;73.310;2022-12-07T09:05:36;-13.54;70.65
73568;SHT30;61847;54.994;73.310;2022-12-07T09:08:09;-13.54;70.10
73568;SHT30;61847;54.994;73.310;2022-12-07T09:10:41;-13.56;69.78
73568;SHT30;61847;54.994;73.310;2022-12-07T09:13:07;-13.62;69.81
73568;SHT30;61847;54.994;73.310;2022-12-07T09:15:33;-13.62;69.39
73568;SHT30;61847;54.994;73.310;2022-12-07T09:18:00;-13.59;68.64
73568;SHT30;61847;54.994;73.310;2022-12-07T09:20:26;-13.55;68.88
73568;SHT30;61847;54.994;73.310;2022-12-07T09:22:52;-13.59;68.12
73568;SHT30;61847;54.994;73.310;2022-12-07T09:25:28;-13.66;68.08
73568;SHT30;61847;54.994;73.310;2022-12-07T09:27:57;-13.69;67.10
73568;SHT30;61847;54.994;73.310;2022-12-07T09:30:27;-13.66;67.61
73568;SHT30;61847;54.994;73.310;2022-12-07T09:32:55;-13.73;67.07
73568;SHT30;61847;54.994;73.310;2022-12-07T09:35:22;-13.76;66.84
73568;SHT30;61847;54.994;73.310;2022-12-07T09:37:54;-13.73;67.30
73568;SHT30;61847;54.994;73.310;2022-12-07T09:40:22;-13.72;67.02
73568;SHT30;61847;54.994;73.310;2022-12-07T09:42:55;-13.72;67.28
73568;SHT30;61847;54.994;73.310;2022-12-07T09:45:40;-13.73;67.06
73568;SHT30;61847;54.994;73.310;2022-12-07T09:48:17;-13.72;67.64
73568;SHT30;61847;54.994;73.310;2022-12-07T09:50:57;-13.76;67.24
73568;SHT30;61847;54.994;73.310;2022-12-07T09:53:27;-13.75;67.71
73568;SHT30;61847;54.994;73.310;2022-12-07T09:55:56;-13.69;67.76
73568;SHT30;61847;54.994;73.310;2022-12-07T09:58:24;-13.76;66.90
73568;SHT30;61847;54.994;73.310;2022-12-07T10:00:55;-13.79;65.90
73568;SHT30;61847;54.994;73.310;2022-12-07T10:03:23;-13.91;65.64
73568;SHT30;61847;54.994;73.310;2022-12-07T10:05:59;-13.80;65.75
73568;SHT30;61847;54.994;73.310;2022-12-07T10:08:26;-13.75;66.18
73568;SHT30;61847;54.994;73.310;2022-12-07T10:10:58;-13.82;65.44
73568;SHT30;61847;54.994;73.310;2022-12-07T10:13:39;-13.90;65.33
73568;SHT30;61847;54.994;73.310;2022-12-07T10:16:38;-13.94;65.22
73568;SHT30;61847;54.994;73.310;2022-12-07T10:19:26;-14.00;65.23
73568;SHT30;61847;54.994;73.310;2022-12-07T10:22:19;-13.99;65.75
73568;SHT30;61847;54.994;73.310;2022-12-07T10:24:47;-14.03;65.89
73568;SHT30;61847;54.994;73.310;2022-12-07T10:27:26;-14.07;65.73
73568;SHT30;61847;54.994;73.310;2022-12-07T10:30:12;-14.09;65.93
73568;SHT30;61847;54.994;73.310;2022-12-07T10:32:39;-14.09;65.98
73568;SHT30;61847;54.994;73.310;2022-12-07T10:35:21;-14.12;65.91
73568;SHT30;61847;54.994;73.310;2022-12-07T10:38:00;-14.07;66.09
73568;SHT30;61847;54.994;73.310;2022-12-07T10:40:35;-13.97;66.16
73568;SHT30;61847;54.994;73.310;2022-12-07T10:45:28;-13.94;66.04
73568;SHT30;61847;54.994;73.310;2022-12-07T10:48:08;-13.96;66.21
73568;SHT30;61847;54.994;73.310;2022-12-07T10:53:52;-13.99;66.66
73568;SHT30;61847;54.994;73.310;2022-12-07T10:56:48;-14.13;67.04
73568;SHT30;61847;54.994;73.310;2022-12-07T11:05:31;-14.04;67.72
73568;SHT30;61847;54.994;73.310;2022-12-07T11:08:21;-14.10;68.51
73568;SHT30;61847;54.994;73.310;2022-12-07T11:11:16;-14.00;68.56
73568;SHT30;61847;54.994;73.310;2022-12-07T11:14:05;-13.97;68.70
73568;SHT30;61847;54.994;73.310;2022-12-07T11:19:16;-14.03;69.16
73568;SHT30;61847;54.994;73.310;2022-12-07T11:22:04;-14.06;68.86
73568;SHT30;61847;54.994;73.310;2022-12-07T11:27:47;-14.10;69.28
73568;SHT30;61847;54.994;73.310;2022-12-07T11:30:20;-14.14;69.31
73568;SHT30;61847;54.994;73.310;2022-12-07T11:33:07;-14.12;69.46
73568;SHT30;61847;54.994;73.310;2022-12-07T11:38:46;-14.12;69.46
73568;SHT30;61847;54.994;73.310;2022-12-07T11:41:24;-14.14;69.56
73568;SHT30;61847;54.994;73.310;2022-12-07T11:46:48;-14.20;69.98
73568;SHT30;61847;54.994;73.310;2022-12-07T11:49:47;-14.14;70.14
73568;SHT30;61847;54.994;73.310;2022-12-07T11:52:58;-14.21;70.11
73568;SHT30;61847;54.994;73.310;2022-12-07T11:55:49;-14.28;70.42
73568;SHT30;61847;54.994;73.310;2022-12-07T11:58:42;-14.30;70.47
73568;SHT30;61847;54.994;73.310;2022-12-07T12:06:44;-14.55;71.03
73568;SHT30;61847;54.994;73.310;2022-12-07T12:09:20;-14.56;71.38
73568;SHT30;61847;54.994;73.310;2022-12-07T12:12:02;-14.64;71.38
73568;SHT30;61847;54.994;73.310;2022-12-07T12:15:13;-14.69;71.80
73568;SHT30;61847;54.994;73.310;2022-12-07T12:25:49;-14.68;72.54
73568;SHT30;61847;54.994;73.310;2022-12-07T12:28:21;-14.72;72.62
73568;SHT30;61847;54.994;73.310;2022-12-07T12:33:44;-14.86;72.98
73568;SHT30;61847;54.994;73.310;2022-12-07T12:51:54;-14.97;73.78
73568;SHT30;61847;54.994;73.310;2022-12-07T12:54:29;-15.07;73.65
73568;SHT30;61847;54.994;73.310;2022-12-07T12:59:42;-15.07;73.24
73568;SHT30;61847;54.994;73.310;2022-12-07T13:18:35;-15.32;75.03
73568;SHT30;61847;54.994;73.310;2022-12-07T13:29:20;-15.53;75.39
73568;SHT30;61847;54.994;73.310;2022-12-07T13:31:55;-15.55;75.68
73568;SHT30;61847;54.994;73.310;2022-12-07T13:34:36;-15.48;75.82
73568;SHT30;61847;54.994;73.310;2022-12-07T13:37:14;-15.53;75.63
73568;SHT30;61847;54.994;73.310;2022-12-07T13:39:55;-15.58;75.46
73568;SHT30;61847;54.994;73.310;2022-12-07T13:42:33;-15.56;75.40
73568;SHT30;61847;54.994;73.310;2022-12-07T13:45:16;-15.62;75.78
73568;SHT30;61847;54.994;73.310;2022-12-07T13:47:48;-15.66;75.56
73568;SHT30;61847;54.994;73.310;2022-12-07T13:50:28;-15.65;75.74
73568;SHT30;61847;54.994;73.310;2022-12-07T13:53:11;-15.65;75.50
73568;SHT30;61847;54.994;73.310;2022-12-07T13:55:45;-15.62;75.62
73568;SHT30;61847;54.994;73.310;2022-12-07T13:58:22;-15.65;75.48
73568;SHT30;61847;54.994;73.310;2022-12-07T14:00:49;-15.66;75.75
73568;SHT30;61847;54.994;73.310;2022-12-07T14:03:23;-15.70;75.57
73568;SHT30;61847;54.994;73.310;2022-12-07T14:06:13;-15.76;75.72
73568;SHT30;61847;54.994;73.310;2022-12-07T14:08:42;-15.79;75.70
73568;SHT30;61847;54.994;73.310;2022-12-07T14:11:14;-15.83;75.74
73568;SHT30;61847;54.994;73.310;2022-12-07T14:14:01;-15.80;75.54
73568;SHT30;61847;54.994;73.310;2022-12-07T14:16:34;-15.80;75.59
73568;SHT30;61847;54.994;73.310;2022-12-07T14:19:04;-15.89;75.70
73568;SHT30;61847;54.994;73.310;2022-12-07T14:21:33;-15.94;75.96
73568;SHT30;61847;54.994;73.310;2022-12-07T14:24:10;-15.90;75.97
73568;SHT30;61847;54.994;73.310;2022-12-07T14:26:38;-15.91;75.73
73568;SHT30;61847;54.994;73.310;2022-12-07T14:31:53;-15.87;75.59
73568;SHT30;61847;54.994;73.310;2022-12-07T14:34:23;-15.83;75.48
73568;SHT30;61847;54.994;73.310;2022-12-07T14:36:55;-15.89;75.46
73568;SHT30;61847;54.994;73.310;2022-12-07T14:39:21;-15.87;75.82
73568;SHT30;61847;54.994;73.310;2022-12-07T14:41:48;-15.90;75.57
73568;SHT30;61847;54.994;73.310;2022-12-07T14:44:22;-15.95;75.68
73568;SHT30;61847;54.994;73.310;2022-12-07T14:46:50;-15.98;75.87
73568;SHT30;61847;54.994;73.310;2022-12-07T14:49:17;-16.00;75.89
73568;SHT30;61847;54.994;73.310;2022-12-07T14:51:46;-16.03;75.89
73568;SHT30;61847;54.994;73.310;2022-12-07T14:54:25;-16.05;75.85
73568;SHT30;61847;54.994;73.310;2022-12-07T14:56:53;-16.01;75.82
73568;SHT30;61847;54.994;73.310;2022-12-07T14:59:19;-16.10;75.90
73568;SHT30;61847;54.994;73.310;2022-12-07T15:01:46;-16.08;76.29
73568;SHT30;61847;54.994;73.310;2022-12-07T15:04:17;-16.10;76.25
73568;SHT30;61847;54.994;73.310;2022-12-07T15:07:02;-16.10;76.20
73568;SHT30;61847;54.994;73.310;2022-12-07T15:09:29;-16.08;76.15
73568;SHT30;61847;54.994;73.310;2022-12-07T15:11:55;-16.01;76.16
73568;SHT30;61847;54.994;73.310;2022-12-07T15:14:32;-16.01;75.91
73568;SHT30;61847;54.994;73.310;2022-12-07T15:17:03;-16.12;75.98
73568;SHT30;61847;54.994;73.310;2022-12-07T15:19:30;-16.22;76.22
73568;SHT30;61847;54.994;73.310;2022-12-07T15:21:57;-16.25;76.28
73568;SHT30;61847;54.994;73.310;2022-12-07T15:24:24;-16.33;76.17
73568;SHT30;61847;54.994;73.310;2022-12-07T15:26:50;-16.38;76.11
73568;SHT30;61847;54.994;73.310;2022-12-07T15:29:17;-16.39;76.11
73568;SHT30;61847;54.994;73.310;2022-12-07T15:31:43;-16.42;75.80
73568;SHT30;61847;54.994;73.310;2022-12-07T15:34:23;-16.52;75.84
73568;SHT30;61847;54.994;73.310;2022-12-07T15:36:49;-16.62;75.94
73568;SHT30;61847;54.994;73.310;2022-12-07T15:39:18;-16.72;75.10
73568;SHT30;61847;54.994;73.310;2022-12-07T15:41:44;-16.76;75.02
73568;SHT30;61847;54.994;73.310;2022-12-07T15:44:14;-16.77;74.84
73568;SHT30;61847;54.994;73.310;2022-12-07T15:47:00;-16.77;74.74
73568;SHT30;61847;54.994;73.310;2022-12-07T15:49:26;-16.90;74.52
73568;SHT30;61847;54.994;73.310;2022-12-07T15:51:53;-16.94;74.80
73568;SHT30;61847;54.994;73.310;2022-12-07T15:54:29;-17.00;75.02
73568;SHT30;61847;54.994;73.310;2022-12-07T15:56:56;-16.99;74.86
73568;SHT30;61847;54.994;73.310;2022-12-07T15:59:22;-17.00;74.90
73568;SHT30;61847;54.994;73.310;2022-12-07T16:01:49;-17.01;74.93
73568;SHT30;61847;54.994;73.310;2022-12-07T16:04:21;-16.99;74.47
73568;SHT30;61847;54.994;73.310;2022-12-07T16:06:47;-17.08;74.27
73568;SHT30;61847;54.994;73.310;2022-12-07T16:09:13;-17.11;74.52
73568;SHT30;61847;54.994;73.310;2022-12-07T16:11:41;-17.15;74.35
73568;SHT30;61847;54.994;73.310;2022-12-07T16:14:08;-17.19;74.46
73568;SHT30;61847;54.994;73.310;2022-12-07T16:16:41;-17.22;74.28
73568;SHT30;61847;54.994;73.310;2022-12-07T16:19:08;-17.24;74.37
73568;SHT30;61847;54.994;73.310;2022-12-07T16:21:40;-17.25;74.27
73568;SHT30;61847;54.994;73.310;2022-12-07T16:24:12;-17.25;74.11
73568;SHT30;61847;54.994;73.310;2022-12-07T16:26:41;-17.29;74.20
73568;SHT30;61847;54.994;73.310;2022-12-07T16:29:11;-17.34;74.25
73568;SHT30;61847;54.994;73.310;2022-12-07T16:31:38;-17.31;74.08
73568;SHT30;61847;54.994;73.310;2022-12-07T16:34:04;-17.34;73.78
73568;SHT30;61847;54.994;73.310;2022-12-07T16:36:40;-17.39;73.93
73568;SHT30;61847;54.994;73.310;2022-12-07T16:39:08;-17.49;73.75
73568;SHT30;61847;54.994;73.310;2022-12-07T16:41:35;-17.59;73.90
73568;SHT30;61847;54.994;73.310;2022-12-07T16:44:07;-17.59;74.03
73568;SHT30;61847;54.994;73.310;2022-12-07T16:46:36;-17.59;73.82
73568;SHT30;61847;54.994;73.310;2022-12-07T16:49:13;-17.71;73.65
73568;SHT30;61847;54.994;73.310;2022-12-07T16:51:40;-17.79;73.74
73568;SHT30;61847;54.994;73.310;2022-12-07T16:54:12;-17.84;73.78
73568;SHT30;61847;54.994;73.310;2022-12-07T16:56:40;-17.93;73.87
73568;SHT30;61847;54.994;73.310;2022-12-07T16:59:07;-17.97;74.48
73568;SHT30;61847;54.994;73.310;2022-12-07T17:01:34;-17.88;74.32
73568;SHT30;61847;54.994;73.310;2022-12-07T17:04:02;-17.87;74.16
73568;SHT30;61847;54.994;73.310;2022-12-07T17:06:30;-17.87;74.06
73568;SHT30;61847;54.994;73.310;2022-12-07T17:08:59;-17.84;73.94
73568;SHT30;61847;54.994;73.310;2022-12-07T17:11:28;-17.86;74.00
73568;SHT30;61847;54.994;73.310;2022-12-07T17:13:55;-17.86;73.89
73568;SHT30;61847;54.994;73.310;2022-12-07T17:16:40;-17.90;73.81
73568;SHT30;61847;54.994;73.310;2022-12-07T17:19:16;-17.88;74.04
73568;SHT30;61847;54.994;73.310;2022-12-07T17:21:43;-17.97;73.78
73568;SHT30;61847;54.994;73.310;2022-12-07T17:24:11;-18.02;73.62
73568;SHT30;61847;54.994;73.310;2022-12-07T17:26:38;-18.04;73.48